PALH Airport (Lake Hood) Information

FAA: LHD - ICAO: PALH

PALH Airport Location

State Alaska
County Anchorage
City Anchorage
PALH Airport is 3 miles southwest of Anchorage, AK.
Latitude 61-11-11.9011N
Longitude 149-57-55.4171W
Elevation 79ft

PALH Airport METARs

METAR PALH 262353Z AUTO 01009KT 10SM OVC060 M13/M19 A2968 RMK AO2 SLP051 T11331194 11133 21167 50003 TSNO
Altimeter 29.68"
Temperature -13.3°C (8.1°F)
Wind 10° at 9KT
Clouds overcast at 6,000ft
Visibility 10.0mi
Time observed: 2021-11-26T23:53:00Z

PALH Airport Details

Status Operational
Activation June 1947
Ownership Public
Usage Public
Chart ANCHORAGE
ATC on-site Yes
Beacon schedule N/A
Beacon color N/A

PALH Airport Contacts

Owner STATE OF AK - DOT & PF
Owner address PO BOX 196960, ANCHORAGE, AK 99519-6960
Owner phone 907-266-2741
Manager N/A
Manager address N/A, N/A
Manager phone N/A

PALH Airport (Lake Hood) Radio Frequencies

PALH (Airport) Radio Frequencies

UNICOM N/A
Common traffic advisory frequency (CTAF) 126.8